Time;durP1;ratioP1;P1;durP2;ratioP2;P2;SDS_P1;SDS_P2;PMS_P1;PMS_P2;Temp;Humidity;BMP_temperature;BMP_pressure;BME280_temperature;BME280_humidity;BME280_pressure;Samples;Min_cycle;Max_cycle;Signal;HPM_P1;HPM_P2
2021/03/15 00:00:06;;;;;;;6.95;3.92;;;4.20;31.80;;;;;;4940130;29;20395;-73
2021/03/15 00:02:33;;;;;;;6.57;3.22;;;4.20;32.80;;;;;;4931734;29;20055;-72
2021/03/15 00:05:00;;;;;;;8.50;3.95;;;4.20;33.20;;;;;;4937604;29;20066;-73
2021/03/15 00:07:27;;;;;;;8.35;3.83;;;4.20;33.70;;;;;;4944492;29;20387;-72
2021/03/15 00:09:54;;;;;;;6.68;3.55;;;4.20;35.40;;;;;;4939992;29;20058;-72
2021/03/15 00:12:21;;;;;;;8.52;3.63;;;4.20;36.30;;;;;;4934608;29;20513;-72
2021/03/15 00:14:48;;;;;;;8.30;3.00;;;4.20;37.20;;;;;;4933774;29;20047;-72
2021/03/15 00:17:16;;;;;;;4.97;3.42;;;4.20;36.50;;;;;;4941580;29;20616;-72
2021/03/15 00:19:43;;;;;;;12.60;3.55;;;4.20;36.90;;;;;;4943139;29;20071;-72
2021/03/15 00:22:11;;;;;;;8.13;3.53;;;4.20;35.40;;;;;;4932357;29;20052;-72
2021/03/15 00:24:37;;;;;;;7.57;3.38;;;4.20;36.80;;;;;;4930391;29;20059;-71
2021/03/15 00:27:05;;;;;;;6.03;3.95;;;4.20;35.10;;;;;;4937470;29;20051;-74
2021/03/15 00:29:32;;;;;;;6.72;3.53;;;4.20;35.00;;;;;;4938573;29;20056;-71
2021/03/15 00:31:59;;;;;;;6.28;3.35;;;4.20;35.00;;;;;;4934622;29;20059;-72
2021/03/15 00:34:27;;;;;;;4.65;3.33;;;4.20;35.30;;;;;;4928594;29;20063;-72
2021/03/15 00:36:54;;;;;;;8.93;4.18;;;4.20;34.10;;;;;;4941405;29;20062;-72
2021/03/15 00:39:22;;;;;;;7.60;3.85;;;4.30;34.60;;;;;;4943415;29;20493;-73
2021/03/15 00:41:49;;;;;;;5.00;3.40;;;4.30;35.40;;;;;;4935483;29;20051;-73
2021/03/15 00:44:16;;;;;;;6.10;3.13;;;4.20;34.20;;;;;;4927351;29;20059;-71
2021/03/15 00:46:43;;;;;;;5.43;2.92;;;4.30;34.90;;;;;;4940645;29;20057;-71
2021/03/15 00:49:10;;;;;;;6.47;3.20;;;4.20;33.30;;;;;;4938415;29;20051;-71
2021/03/15 00:51:37;;;;;;;4.13;3.00;;;4.20;34.50;;;;;;4938155;29;20130;-72
2021/03/15 00:54:05;;;;;;;4.60;3.08;;;4.10;33.90;;;;;;4929306;29;20051;-72
2021/03/15 00:56:32;;;;;;;5.60;3.22;;;4.20;34.50;;;;;;4941938;29;20514;-72
2021/03/15 00:58:59;;;;;;;7.90;2.85;;;4.20;34.00;;;;;;4943252;29;20049;-72
2021/03/15 01:01:35;;;;;;;5.45;2.72;;;4.20;33.90;;;;;;4941240;29;20054;-72
2021/03/15 01:04:03;;;;;;;3.75;2.90;;;4.20;33.70;;;;;;4928540;29;20048;-72
2021/03/15 01:06:40;;;;;;;6.60;3.70;;;4.10;33.10;;;;;;4936749;29;20071;-72
2021/03/15 01:09:07;;;;;;;7.38;2.97;;;4.10;34.60;;;;;;4945339;29;20058;-73
2021/03/15 01:11:34;;;;;;;6.63;3.53;;;4.10;34.30;;;;;;4941520;29;20054;-73
2021/03/15 01:14:01;;;;;;;5.13;3.45;;;4.00;34.70;;;;;;4929406;29;20054;-73
2021/03/15 01:16:28;;;;;;;6.38;3.42;;;4.00;34.90;;;;;;4939292;29;20051;-73
2021/03/15 01:18:55;;;;;;;10.95;3.83;;;3.90;35.30;;;;;;4936802;29;20062;-74
2021/03/15 01:21:23;;;;;;;11.30;4.28;;;3.90;35.90;;;;;;4939951;29;20051;-73
2021/03/15 01:23:50;;;;;;;11.45;4.32;;;3.70;37.00;;;;;;4925857;29;20067;-73
2021/03/15 01:26:17;;;;;;;7.65;4.10;;;3.70;39.70;;;;;;4937183;29;20078;-73
2021/03/15 01:28:44;;;;;;;8.02;4.32;;;3.70;40.00;;;;;;4941600;29;20570;-73
2021/03/15 01:31:11;;;;;;;6.93;3.80;;;3.70;39.40;;;;;;4938201;29;20516;-73
2021/03/15 01:33:38;;;;;;;12.05;4.30;;;3.70;38.00;;;;;;4929240;29;20044;-72
2021/03/15 01:36:06;;;;;;;8.45;4.45;;;3.80;37.10;;;;;;4933581;29;20052;-73
2021/03/15 01:38:33;;;;;;;7.10;3.92;;;3.80;36.60;;;;;;4947741;29;20513;-73
2021/03/15 01:41:01;;;;;;;11.80;4.43;;;3.80;35.50;;;;;;4941352;28;20054;-72
2021/03/15 01:43:28;;;;;;;7.05;4.05;;;3.80;35.60;;;;;;4925730;29;20059;-73
2021/03/15 01:45:55;;;;;;;9.40;4.28;;;3.90;32.90;;;;;;4939760;29;20048;-71
2021/03/15 01:48:22;;;;;;;5.75;3.80;;;3.80;33.00;;;;;;4940226;28;20144;-71
2021/03/15 01:50:50;;;;;;;7.50;4.35;;;3.80;32.90;;;;;;4935623;29;20052;-72
2021/03/15 01:53:18;;;;;;;8.60;4.55;;;3.70;32.70;;;;;;4926005;29;20055;-72
2021/03/15 01:55:46;;;;;;;8.13;4.32;;;3.70;32.80;;;;;;4934721;29;20047;-71
2021/03/15 01:58:15;;;;;;;6.70;4.30;;;3.70;33.20;;;;;;4938767;29;20060;-71
2021/03/15 02:00:43;;;;;;;6.88;4.53;;;3.60;33.50;;;;;;4940304;28;20557;-72
2021/03/15 02:03:11;;;;;;;8.52;4.07;;;3.60;33.90;;;;;;4925433;29;20445;-72
2021/03/15 02:05:41;;;;;;;9.80;4.43;;;3.60;33.60;;;;;;4938839;29;20427;-71
2021/03/15 02:08:09;;;;;;;11.20;4.60;;;3.60;32.80;;;;;;4939857;29;20130;-70
2021/03/15 02:10:37;;;;;;;10.48;4.63;;;3.50;33.30;;;;;;4937979;29;20418;-71
2021/03/15 02:13:36;;;;;;;7.72;5.03;;;3.40;34.60;;;;;;4924086;28;20512;-71
2021/03/15 02:16:08;;;;;;;13.23;5.18;;;3.40;35.80;;;;;;4938379;29;20059;-72
2021/03/15 02:18:48;;;;;;;10.13;4.88;;;3.20;36.60;;;;;;4941111;29;20051;-72
2021/03/15 02:21:49;;;;;;;12.07;5.18;;;3.10;38.00;;;;;;4941857;29;20043;-73
2021/03/15 02:24:23;;;;;;;9.48;5.55;;;3.10;39.50;;;;;;4928153;29;20043;-72
2021/03/15 02:27:30;;;;;;;12.55;5.57;;;3.20;39.10;;;;;;4936381;29;20054;-73
2021/03/15 02:30:26;;;;;;;8.32;5.00;;;3.30;38.20;;;;;;4902429;29;20063;-72
2021/03/15 02:33:19;;;;;;;9.05;5.32;;;3.30;37.80;;;;;;4895240;29;20066;-72
2021/03/15 02:35:49;;;;;;;11.15;4.75;;;3.40;37.00;;;;;;4907057;29;20046;-72
2021/03/15 02:38:19;;;;;;;8.20;4.65;;;3.40;36.70;;;;;;4936463;29;20062;-72
2021/03/15 02:40:48;;;;;;;9.60;4.88;;;3.40;36.70;;;;;;4946711;29;20110;-73
2021/03/15 02:43:19;;;;;;;12.60;5.30;;;3.30;36.70;;;;;;4936496;29;20059;-72
2021/03/15 02:45:49;;;;;;;9.02;5.30;;;3.30;36.80;;;;;;4941799;29;20054;-72
2021/03/15 02:48:18;;;;;;;8.02;4.93;;;3.40;37.50;;;;;;4943180;29;20143;-73
2021/03/15 02:50:48;;;;;;;11.38;5.00;;;3.40;37.70;;;;;;4945085;29;20043;-71
2021/03/15 02:53:18;;;;;;;14.48;4.82;;;3.50;37.80;;;;;;4936452;29;20043;-72
2021/03/15 02:55:50;;;;;;;14.88;5.53;;;3.50;36.90;;;;;;4944954;29;20062;-73
2021/03/15 02:58:20;;;;;;;10.90;4.90;;;3.50;36.80;;;;;;4946627;29;20052;-74
2021/03/15 03:00:47;;;;;;;17.77;5.43;;;3.60;36.70;;;;;;4943842;29;20070;-74
2021/03/15 03:03:18;;;;;;;11.48;4.50;;;3.60;36.80;;;;;;4942740;28;20044;-72
2021/03/15 03:05:46;;;;;;;10.70;4.90;;;3.60;36.00;;;;;;4946615;29;20047;-73
2021/03/15 03:08:19;;;;;;;16.95;5.47;;;3.60;36.80;;;;;;4943331;29;20476;-72
2021/03/15 03:10:47;;;;;;;9.70;5.03;;;3.50;36.60;;;;;;4946650;29;20143;-73
2021/03/15 03:13:16;;;;;;;14.52;6.22;;;3.50;36.50;;;;;;4938378;29;20050;-72
2021/03/15 03:15:44;;;;;;;15.90;4.78;;;3.40;36.60;;;;;;4941199;29;20412;-73
2021/03/15 03:18:14;;;;;;;16.27;4.82;;;3.30;37.30;;;;;;4944489;29;20507;-72
2021/03/15 03:20:51;;;;;;;14.75;5.22;;;3.40;38.10;;;;;;4945483;29;20052;-72
2021/03/15 03:23:22;;;;;;;7.43;4.40;;;3.30;38.60;;;;;;4934334;29;20067;-71
2021/03/15 03:25:53;;;;;;;14.38;5.22;;;3.30;38.70;;;;;;4947892;29;20055;-71
2021/03/15 03:28:23;;;;;;;12.70;4.82;;;3.30;38.00;;;;;;4946622;29;20095;-71
2021/03/15 03:30:51;;;;;;;8.50;4.30;;;3.30;38.60;;;;;;4941855;29;20138;-69
2021/03/15 03:33:18;;;;;;;13.60;4.82;;;3.20;39.40;;;;;;4935571;29;20055;-72
2021/03/15 03:35:45;;;;;;;11.90;4.88;;;3.20;40.30;;;;;;4943103;29;20065;-72
2021/03/15 03:38:12;;;;;;;13.10;4.80;;;3.20;40.70;;;;;;4948792;29;20449;-71
2021/03/15 03:40:40;;;;;;;12.55;4.95;;;3.10;40.70;;;;;;4940838;29;20273;-73
2021/03/15 03:43:07;;;;;;;10.27;5.05;;;3.10;41.20;;;;;;4938072;29;20263;-72
2021/03/15 03:45:34;;;;;;;10.15;5.70;;;3.10;41.30;;;;;;4939886;29;20047;-72
2021/03/15 03:48:03;;;;;;;12.52;4.90;;;3.10;40.90;;;;;;4945158;29;20371;-73
2021/03/15 03:50:33;;;;;;;10.98;4.82;;;3.10;40.60;;;;;;4948331;29;20063;-73
2021/03/15 03:53:06;;;;;;;9.85;4.68;;;3.20;39.10;;;;;;4937238;29;20062;-72
2021/03/15 03:55:40;;;;;;;9.73;4.32;;;3.30;37.10;;;;;;4939429;29;20051;-72
2021/03/15 03:58:12;;;;;;;9.50;4.60;;;3.30;36.60;;;;;;4944756;29;20051;-73
2021/03/15 04:00:39;;;;;;;13.57;4.85;;;3.40;35.50;;;;;;4943043;29;20058;-74
2021/03/15 04:03:14;;;;;;;9.45;4.65;;;3.50;33.70;;;;;;4936012;29;20822;-73
2021/03/15 04:05:44;;;;;;;7.47;4.03;;;3.50;33.30;;;;;;4943649;29;20051;-72
2021/03/15 04:08:15;;;;;;;10.75;4.13;;;3.50;30.90;;;;;;4945042;29;20043;-73
2021/03/15 04:10:42;;;;;;;7.40;3.40;;;3.60;30.10;;;;;;4942342;29;20047;-74
2021/03/15 04:13:13;;;;;;;9.07;3.72;;;3.60;31.50;;;;;;4937114;29;20055;-73
2021/03/15 04:15:43;;;;;;;11.48;3.97;;;3.70;30.80;;;;;;4946906;29;20052;-73
2021/03/15 04:18:12;;;;;;;7.43;3.47;;;3.70;31.30;;;;;;4943786;28;20060;-74
2021/03/15 04:20:42;;;;;;;9.13;4.07;;;3.70;31.20;;;;;;4944424;29;20473;-70
2021/03/15 04:23:12;;;;;;;8.10;3.85;;;3.70;31.10;;;;;;4934302;29;20047;-71
2021/03/15 04:25:40;;;;;;;8.15;3.38;;;3.70;32.20;;;;;;4937264;29;20585;-72
2021/03/15 04:28:08;;;;;;;6.95;3.20;;;3.70;33.20;;;;;;4940858;29;20063;-70
2021/03/15 04:30:38;;;;;;;6.93;3.75;;;3.60;34.00;;;;;;4947713;29;20127;-70
2021/03/15 04:33:06;;;;;;;8.68;3.13;;;3.70;34.90;;;;;;4934349;29;20055;-71
2021/03/15 04:35:36;;;;;;;7.82;3.70;;;3.60;34.80;;;;;;4942513;29;20047;-71
2021/03/15 04:38:05;;;;;;;11.73;3.55;;;3.60;35.50;;;;;;4944991;29;20051;-69
2021/03/15 04:40:34;;;;;;;8.18;3.78;;;3.50;36.10;;;;;;4945784;29;20043;-70
2021/03/15 04:43:03;;;;;;;7.78;3.20;;;3.50;35.30;;;;;;4934202;29;20055;-72
2021/03/15 04:45:31;;;;;;;7.38;3.53;;;3.60;36.90;;;;;;4941231;29;20047;-71
2021/03/15 04:48:01;;;;;;;8.45;3.65;;;3.50;35.60;;;;;;4944554;29;20485;-72
2021/03/15 04:50:29;;;;;;;6.53;3.20;;;3.60;36.90;;;;;;4945308;28;20059;-71
2021/03/15 04:52:57;;;;;;;5.93;3.05;;;3.60;36.90;;;;;;4940499;29;20052;-71
2021/03/15 04:55:26;;;;;;;10.70;4.75;;;3.60;36.90;;;;;;4937112;29;20426;-71
2021/03/15 04:57:55;;;;;;;5.25;3.25;;;3.60;36.90;;;;;;4942070;29;20079;-71
2021/03/15 05:00:23;;;;;;;6.05;3.35;;;3.60;37.40;;;;;;4941006;29;20051;-71
2021/03/15 05:02:51;;;;;;;7.63;3.33;;;3.60;38.30;;;;;;4937432;29;20051;-72
2021/03/15 05:05:20;;;;;;;11.32;3.47;;;3.70;39.40;;;;;;4942462;29;20052;-72
2021/03/15 05:07:49;;;;;;;6.68;3.05;;;3.60;39.50;;;;;;4941842;29;20051;-72
2021/03/15 05:10:17;;;;;;;10.35;3.88;;;3.60;40.00;;;;;;4943787;29;20051;-72
2021/03/15 05:12:46;;;;;;;9.10;4.03;;;3.60;39.10;;;;;;4933922;29;20433;-71
2021/03/15 05:15:14;;;;;;;7.20;3.83;;;3.70;40.80;;;;;;4942286;29;20066;-71
2021/03/15 05:17:41;;;;;;;8.18;4.40;;;3.70;41.20;;;;;;4946792;29;20425;-70
2021/03/15 05:20:11;;;;;;;8.45;3.45;;;3.70;41.10;;;;;;4942890;29;20059;-70
2021/03/15 05:22:41;;;;;;;6.45;3.75;;;3.60;39.20;;;;;;4936053;29;20593;-71
2021/03/15 05:25:12;;;;;;;8.13;4.40;;;3.60;40.00;;;;;;4941529;29;20054;-72
2021/03/15 05:27:40;;;;;;;6.97;3.53;;;3.70;41.00;;;;;;4940335;29;20514;-71
2021/03/15 05:30:11;;;;;;;7.63;4.25;;;3.60;39.80;;;;;;4941897;29;20059;-70
2021/03/15 05:32:40;;;;;;;8.15;3.20;;;3.60;41.30;;;;;;4937782;29;20051;-69
2021/03/15 05:35:10;;;;;;;7.30;3.70;;;3.50;40.20;;;;;;4939711;29;20055;-70
2021/03/15 05:37:39;;;;;;;7.75;3.85;;;3.50;41.00;;;;;;4939226;29;20048;-72
2021/03/15 05:40:18;;;;;;;7.18;3.30;;;3.50;41.40;;;;;;4943622;29;20423;-72
2021/03/15 05:43:09;;;;;;;8.48;3.40;;;3.50;42.40;;;;;;4937071;29;20054;-71
2021/03/15 05:46:00;;;;;;;4.55;3.20;;;3.50;42.90;;;;;;4942545;29;20081;-71
2021/03/15 05:49:00;;;;;;;8.77;3.45;;;3.50;42.30;;;;;;4945338;29;20097;-69
2021/03/15 05:51:49;;;;;;;8.73;3.40;;;3.50;43.00;;;;;;4941710;29;20047;-70
2021/03/15 05:55:00;;;;;;;7.90;4.55;;;3.40;43.20;;;;;;4937155;29;20047;-72
2021/03/15 05:58:11;;;;;;;7.47;4.22;;;3.50;44.90;;;;;;4941537;29;20051;-70
2021/03/15 06:00:57;;;;;;;6.05;3.13;;;3.40;44.90;;;;;;4921596;28;20058;-71
2021/03/15 06:03:46;;;;;;;6.75;3.75;;;3.40;44.50;;;;;;4935698;29;20063;-71
2021/03/15 06:06:16;;;;;;;8.48;4.00;;;3.30;43.80;;;;;;4944559;29;20424;-71
2021/03/15 06:08:46;;;;;;;6.47;3.35;;;3.40;44.90;;;;;;4939585;29;20420;-70
2021/03/15 06:11:16;;;;;;;7.38;3.60;;;3.50;45.80;;;;;;4936993;29;20045;-71
2021/03/15 06:13:44;;;;;;;8.75;3.72;;;3.40;45.10;;;;;;4937398;29;20047;-71
2021/03/15 06:16:12;;;;;;;6.85;3.60;;;3.50;45.30;;;;;;4941984;29;20047;-71
2021/03/15 06:18:40;;;;;;;5.55;3.47;;;3.50;45.60;;;;;;4935012;29;20494;-71
2021/03/15 06:21:10;;;;;;;6.53;3.83;;;3.50;45.00;;;;;;4940858;29;20048;-70
2021/03/15 06:23:38;;;;;;;7.65;4.00;;;3.60;45.70;;;;;;4934319;29;20070;-71
2021/03/15 06:26:07;;;;;;;7.88;3.88;;;3.50;45.50;;;;;;4945823;28;20089;-71
2021/03/15 06:28:35;;;;;;;6.55;3.92;;;3.60;45.10;;;;;;4939655;29;20552;-71
2021/03/15 06:31:02;;;;;;;5.25;3.40;;;3.60;45.30;;;;;;4940305;29;20122;-70
2021/03/15 06:33:30;;;;;;;8.15;3.45;;;3.70;45.20;;;;;;4934917;29;20538;-71
2021/03/15 06:35:59;;;;;;;5.80;3.45;;;3.70;44.00;;;;;;4941459;29;20047;-70
2021/03/15 06:38:28;;;;;;;6.45;3.30;;;3.70;43.00;;;;;;4939121;29;20047;-71
2021/03/15 06:40:59;;;;;;;10.85;3.88;;;3.80;42.60;;;;;;4943909;29;20051;-70
2021/03/15 06:43:27;;;;;;;8.90;3.70;;;3.90;42.00;;;;;;4933469;29;20051;-71
2021/03/15 06:45:55;;;;;;;7.35;3.17;;;4.00;42.00;;;;;;4939855;29;20417;-72
2021/03/15 06:48:25;;;;;;;4.82;3.00;;;4.00;41.00;;;;;;4944587;29;20138;-71
2021/03/15 06:50:53;;;;;;;6.20;2.80;;;4.00;39.30;;;;;;4943555;29;20430;-70
2021/03/15 06:53:21;;;;;;;5.75;2.45;;;4.10;41.40;;;;;;4938298;29;20055;-72
2021/03/15 06:55:49;;;;;;;10.98;3.05;;;4.10;37.30;;;;;;4942788;29;20061;-71
2021/03/15 06:58:27;;;;;;;7.85;2.85;;;4.10;38.20;;;;;;4941419;29;20051;-71
2021/03/15 07:01:16;;;;;;;5.30;2.60;;;4.10;38.50;;;;;;4940079;29;20055;-72
2021/03/15 07:03:44;;;;;;;10.80;3.13;;;4.20;40.00;;;;;;4932472;29;20048;-70
2021/03/15 07:06:11;;;;;;;5.20;2.83;;;4.30;39.70;;;;;;4942290;29;20083;-71
2021/03/15 07:08:38;;;;;;;7.07;3.03;;;4.30;38.00;;;;;;4939432;28;20062;-71
2021/03/15 07:11:24;;;;;;;4.60;2.67;;;4.20;37.40;;;;;;4940679;29;20121;-70
2021/03/15 07:13:51;;;;;;;3.30;2.08;;;4.20;37.40;;;;;;4934718;29;20071;-72
2021/03/15 07:16:28;;;;;;;2.60;2.05;;;4.30;37.80;;;;;;4945152;29;20044;-70
2021/03/15 07:18:55;;;;;;;12.60;2.95;;;4.20;35.90;;;;;;4945018;29;20089;-72
2021/03/15 07:21:36;;;;;;;4.07;2.75;;;4.30;37.50;;;;;;4945635;29;20130;-71
2021/03/15 07:24:08;;;;;;;7.43;2.97;;;4.30;33.70;;;;;;4935793;29;20047;-71
2021/03/15 07:26:37;;;;;;;5.03;2.88;;;4.50;36.60;;;;;;4945323;29;20054;-71
2021/03/15 07:29:10;;;;;;;6.18;2.42;;;4.50;35.80;;;;;;4943490;29;21410;-71
2021/03/15 07:31:38;;;;;;;5.68;2.42;;;4.40;35.30;;;;;;4943492;29;20056;-70
2021/03/15 07:34:14;;;;;;;4.13;2.33;;;4.30;35.10;;;;;;4940204;29;20077;-71
2021/03/15 07:37:01;;;;;;;3.08;1.70;;;4.10;33.30;;;;;;4944595;29;20059;-70
2021/03/15 07:39:31;;;;;;;5.55;2.00;;;3.60;31.30;;;;;;4941631;29;20127;-70
2021/03/15 07:42:00;;;;;;;3.75;1.52;;;3.40;37.90;;;;;;4944825;29;20082;-71
2021/03/15 07:44:29;;;;;;;3.55;1.95;;;3.30;41.70;;;;;;4942264;29;20061;-71
2021/03/15 07:46:58;;;;;;;3.08;1.92;;;3.40;42.60;;;;;;4947480;29;20400;-69
2021/03/15 07:49:30;;;;;;;5.53;2.05;;;3.40;43.80;;;;;;4944821;29;20047;-69
2021/03/15 07:52:02;;;;;;;3.28;2.00;;;3.50;43.70;;;;;;4946188;29;20074;-72
2021/03/15 07:54:33;;;;;;;4.45;2.40;;;3.50;42.80;;;;;;4937439;29;20056;-71
2021/03/15 07:57:18;;;;;;;4.75;1.90;;;3.50;43.80;;;;;;4948600;29;20469;-69
2021/03/15 07:59:47;;;;;;;2.43;1.77;;;3.50;44.50;;;;;;4940444;29;20055;-70
2021/03/15 08:02:17;;;;;;;4.38;2.05;;;3.50;44.80;;;;;;4944408;29;20811;-71
2021/03/15 08:04:45;;;;;;;3.33;2.20;;;3.70;45.20;;;;;;4939490;29;20047;-70
2021/03/15 08:07:13;;;;;;;3.35;1.83;;;3.70;44.10;;;;;;4943662;29;20081;-70
2021/03/15 08:09:46;;;;;;;5.80;2.20;;;3.90;45.70;;;;;;4943802;29;20059;-70
2021/03/15 08:12:16;;;;;;;6.28;1.73;;;3.90;45.30;;;;;;4947208;29;20039;-69
2021/03/15 08:14:46;;;;;;;3.65;1.90;;;4.00;44.40;;;;;;4940503;29;20054;-70
2021/03/15 08:17:18;;;;;;;6.38;2.00;;;4.00;44.40;;;;;;4947836;29;20497;-70
2021/03/15 08:19:47;;;;;;;3.17;1.98;;;4.10;45.00;;;;;;4941840;29;20048;-69
2021/03/15 08:22:23;;;;;;;2.22;1.48;;;4.20;42.90;;;;;;4940043;29;20070;-69
2021/03/15 08:24:54;;;;;;;4.45;2.13;;;4.00;42.60;;;;;;4943294;28;20063;-71
2021/03/15 08:27:22;;;;;;;7.25;2.70;;;4.20;45.40;;;;;;4944158;29;20110;-69
2021/03/15 08:29:51;;;;;;;5.70;1.85;;;4.20;44.90;;;;;;4944970;29;20524;-71
2021/03/15 08:32:20;;;;;;;4.10;1.67;;;4.10;44.50;;;;;;4943415;29;20059;-70
2021/03/15 08:34:47;;;;;;;2.65;1.58;;;4.10;42.70;;;;;;4939280;29;20047;-70
2021/03/15 08:37:14;;;;;;;2.75;1.20;;;4.00;41.40;;;;;;4944315;29;20504;-71
2021/03/15 08:39:41;;;;;;;3.97;1.38;;;4.10;42.80;;;;;;4940812;29;20051;-69
2021/03/15 08:42:25;;;;;;;2.15;1.50;;;4.10;43.10;;;;;;4939090;29;20131;-71
2021/03/15 08:45:28;;;;;;;6.57;3.53;;;4.30;44.70;;;;;;4943633;29;20054;-70
2021/03/15 08:48:00;;;;;;;3.53;1.65;;;4.30;43.80;;;;;;4947654;29;20060;-70
2021/03/15 08:50:47;;;;;;;5.15;1.70;;;4.30;44.90;;;;;;4941630;29;20940;-71
2021/03/15 08:53:48;;;;;;;8.80;1.73;;;4.40;43.90;;;;;;4943495;29;20043;-70
2021/03/15 08:56:35;;;;;;;1.60;1.00;;;4.40;43.60;;;;;;4936378;29;20043;-70
2021/03/15 08:59:03;;;;;;;1.65;0.95;;;4.50;44.00;;;;;;4946718;29;20051;-71
2021/03/15 09:01:49;;;;;;;2.38;1.05;;;4.50;43.20;;;;;;4935313;29;20079;-71
2021/03/15 09:04:42;;;;;;;1.45;1.20;;;4.50;43.90;;;;;;4938311;29;20051;-71
2021/03/15 09:07:35;;;;;;;1.88;1.00;;;4.60;41.60;;;;;;4945211;29;20043;-70
2021/03/15 09:10:41;;;;;;;3.10;1.30;;;4.50;39.80;;;;;;4933901;28;20416;-71
2021/03/15 09:13:16;;;;;;;1.73;1.08;;;4.70;42.00;;;;;;4943302;29;20053;-72
2021/03/15 09:15:45;;;;;;;;;;;4.70;41.00;;;;;;4946053;29;20047;-70
2021/03/15 09:18:51;;;;;;;1.73;1.30;;;4.70;42.00;;;;;;4942584;29;19966;-70
2021/03/15 09:21:51;;;;;;;1.77;1.15;;;4.80;42.40;;;;;;4946005;29;20052;-70
2021/03/15 09:24:51;;;;;;;2.53;1.63;;;4.80;42.00;;;;;;4943653;29;20505;-71
2021/03/15 09:27:30;;;;;;;3.28;2.00;;;5.00;42.20;;;;;;4944352;29;20054;-72
2021/03/15 09:29:59;;;;;;;3.80;1.80;;;5.10;42.20;;;;;;4943480;29;20066;-72
2021/03/15 09:32:31;;;;;;;2.13;1.60;;;5.20;42.40;;;;;;4938411;29;20549;-71
2021/03/15 09:35:01;;;;;;;7.10;1.90;;;5.10;40.20;;;;;;4932680;29;20063;-72
2021/03/15 09:37:29;;;;;;;2.22;1.52;;;5.00;42.20;;;;;;4942108;29;20051;-71
2021/03/15 09:39:57;;;;;;;4.05;1.80;;;5.10;42.00;;;;;;4940193;29;20129;-75
2021/03/15 09:42:25;;;;;;;4.15;2.50;;;5.10;40.20;;;;;;4934369;29;20186;-73
2021/03/15 09:44:52;;;;;;;2.72;2.17;;;5.20;42.10;;;;;;4935285;28;20509;-72
2021/03/15 09:47:24;;;;;;;3.35;2.10;;;5.20;42.10;;;;;;4943649;29;20066;-73
2021/03/15 09:49:52;;;;;;;3.15;2.20;;;5.20;43.00;;;;;;4940758;29;20047;-72
2021/03/15 09:52:21;;;;;;;2.92;1.90;;;5.20;40.80;;;;;;4941884;29;20051;-73
2021/03/15 09:54:51;;;;;;;4.15;2.20;;;5.20;42.20;;;;;;4933216;29;20441;-72
2021/03/15 09:57:19;;;;;;;4.47;2.20;;;5.30;43.30;;;;;;4941272;29;20051;-71
2021/03/15 10:00:06;;;;;;;3.00;2.20;;;5.30;41.90;;;;;;4942568;29;20060;-73
2021/03/15 10:02:33;;;;;;;5.80;2.55;;;5.40;42.50;;;;;;4940818;29;20039;-73
2021/03/15 10:05:07;;;;;;;4.88;2.28;;;5.40;39.50;;;;;;4933127;29;20048;-72
2021/03/15 10:07:40;;;;;;;5.00;2.33;;;5.50;40.90;;;;;;4941276;29;20606;-73
2021/03/15 10:10:16;;;;;;;5.38;2.35;;;5.80;42.50;;;;;;4942561;29;20051;-73
2021/03/15 10:12:44;;;;;;;4.25;2.55;;;5.60;40.80;;;;;;4935631;29;20046;-74
2021/03/15 10:15:12;;;;;;;2.75;1.95;;;5.60;38.50;;;;;;4933932;29;20047;-74
2021/03/15 10:17:40;;;;;;;8.00;2.80;;;5.60;38.50;;;;;;4941320;29;20141;-75
2021/03/15 10:20:29;;;;;;;7.72;2.55;;;5.50;40.40;;;;;;4936918;29;20058;-74
2021/03/15 10:22:57;;;;;;;3.95;2.72;;;5.60;41.80;;;;;;4935686;29;20919;-75
2021/03/15 10:25:24;;;;;;;4.15;2.65;;;5.70;41.40;;;;;;4942461;29;20683;-73
2021/03/15 10:27:54;;;;;;;4.57;2.75;;;5.60;39.50;;;;;;4943466;29;20048;-74
2021/03/15 10:30:27;;;;;;;3.50;2.45;;;5.60;39.00;;;;;;4941870;29;20062;-75
2021/03/15 10:32:54;;;;;;;4.43;2.33;;;5.60;37.70;;;;;;4934819;29;20077;-75
2021/03/15 10:35:23;;;;;;;3.80;2.80;;;5.70;38.60;;;;;;4934742;29;20114;-73
2021/03/15 10:37:52;;;;;;;3.67;2.72;;;5.60;38.80;;;;;;4938590;29;20051;-74
2021/03/15 10:40:21;;;;;;;3.20;2.22;;;5.60;42.40;;;;;;4940234;29;20579;-74
2021/03/15 10:42:50;;;;;;;4.95;3.25;;;5.60;42.50;;;;;;4936866;28;20453;-73
2021/03/15 10:45:17;;;;;;;5.45;2.90;;;5.60;41.30;;;;;;4934397;29;20054;-74
2021/03/15 10:47:44;;;;;;;3.90;2.63;;;5.60;42.30;;;;;;4939142;28;20153;-74
2021/03/15 10:50:26;;;;;;;4.60;2.95;;;5.60;38.40;;;;;;4946667;29;20051;-74
2021/03/15 10:52:53;;;;;;;4.20;2.65;;;5.60;38.50;;;;;;4934972;29;20516;-72
2021/03/15 10:55:23;;;;;;;3.80;2.60;;;5.70;41.30;;;;;;4939728;29;20048;-73
2021/03/15 10:58:06;;;;;;;3.67;2.40;;;5.70;41.40;;;;;;4945002;29;20059;-73
2021/03/15 11:00:34;;;;;;;3.63;2.42;;;5.60;36.20;;;;;;4942182;28;20056;-72
2021/03/15 11:03:01;;;;;;;2.92;2.28;;;5.70;35.90;;;;;;4945806;29;20464;-73
2021/03/15 11:05:29;;;;;;;4.55;2.70;;;5.70;35.60;;;;;;4945631;29;20537;-73
2021/03/15 11:07:56;;;;;;;7.15;2.72;;;5.80;36.40;;;;;;4940398;29;20055;-73
2021/03/15 11:10:24;;;;;;;3.58;2.17;;;5.80;36.80;;;;;;4943284;29;20062;-72
2021/03/15 11:12:53;;;;;;;4.45;2.80;;;5.70;34.40;;;;;;4943323;29;20047;-73
2021/03/15 11:15:23;;;;;;;4.05;2.50;;;5.70;35.30;;;;;;4942135;29;20078;-72
2021/03/15 11:18:09;;;;;;;4.60;2.88;;;5.80;34.70;;;;;;4945793;29;20059;-73
2021/03/15 11:20:43;;;;;;;3.95;2.75;;;5.80;34.40;;;;;;4945230;29;20064;-71
2021/03/15 11:23:10;;;;;;;3.88;2.40;;;5.80;30.30;;;;;;4940053;29;20063;-74
2021/03/15 11:25:38;;;;;;;2.95;2.63;;;5.80;33.90;;;;;;4940536;29;20056;-73
2021/03/15 11:28:08;;;;;;;4.43;2.70;;;5.80;33.40;;;;;;4945498;29;20055;-75
2021/03/15 11:30:37;;;;;;;4.75;2.65;;;5.80;32.70;;;;;;4945065;29;20047;-74
2021/03/15 11:33:07;;;;;;;3.45;2.67;;;5.80;35.20;;;;;;4938860;28;20046;-74
2021/03/15 11:35:36;;;;;;;4.05;2.95;;;6.00;35.10;;;;;;4928320;29;20268;-74
2021/03/15 11:38:04;;;;;;;3.75;2.83;;;5.80;34.80;;;;;;4938661;29;20424;-75
2021/03/15 11:40:34;;;;;;;3.25;2.70;;;5.80;35.60;;;;;;4944116;29;20051;-75
2021/03/15 11:43:01;;;;;;;4.60;3.00;;;5.80;34.50;;;;;;4945782;29;20044;-76
2021/03/15 11:45:30;;;;;;;4.57;2.88;;;5.80;34.50;;;;;;4938537;29;20048;-75
2021/03/15 11:47:58;;;;;;;3.05;2.45;;;6.00;33.20;;;;;;4943404;29;20047;-74
2021/03/15 11:50:27;;;;;;;3.13;2.40;;;6.10;29.60;;;;;;4941488;29;20051;-75
2021/03/15 11:52:55;;;;;;;2.38;2.17;;;6.30;28.50;;;;;;4940952;29;20055;-75
2021/03/15 11:55:23;;;;;;;1.73;1.60;;;6.40;23.20;;;;;;4932939;29;20154;-76
2021/03/15 11:57:49;;;;;;;2.35;1.80;;;6.50;20.40;;;;;;4947628;29;20059;-75
2021/03/15 12:00:18;;;;;;;2.50;1.83;;;6.60;21.60;;;;;;4941511;29;20051;-75
2021/03/15 12:02:46;;;;;;;1.77;1.63;;;7.00;21.60;;;;;;4944274;29;20051;-76
2021/03/15 12:05:15;;;;;;;1.67;1.50;;;6.90;17.10;;;;;;4938182;29;20090;-74
2021/03/15 12:07:43;;;;;;;2.33;1.55;;;6.60;15.70;;;;;;4942445;29;20051;-75
2021/03/15 12:10:11;;;;;;;1.75;1.35;;;6.70;14.20;;;;;;4939609;29;20051;-75
2021/03/15 12:12:40;;;;;;;1.67;1.45;;;6.50;14.40;;;;;;4936134;29;20080;-74
2021/03/15 12:15:25;;;;;;;1.65;1.40;;;6.60;15.60;;;;;;4935130;29;20056;-78
2021/03/15 12:18:02;;;;;;;1.92;1.60;;;6.30;16.90;;;;;;4942493;29;20059;-76
2021/03/15 12:20:30;;;;;;;1.75;1.52;;;6.40;19.70;;;;;;4939757;28;20055;-78
2021/03/15 12:22:57;;;;;;;2.42;2.20;;;6.30;18.90;;;;;;4939479;29;20119;-74
2021/03/15 12:25:24;;;;;;;2.53;2.33;;;6.30;19.80;;;;;;4941870;29;20062;-76
2021/03/15 12:27:52;;;;;;;2.72;2.38;;;6.40;18.90;;;;;;4943086;29;20047;-77
2021/03/15 12:30:20;;;;;;;2.17;1.98;;;6.50;18.10;;;;;;4944183;29;20142;-75
2021/03/15 12:32:47;;;;;;;2.40;2.20;;;6.70;14.40;;;;;;4944531;29;20070;-74
2021/03/15 12:35:15;;;;;;;4.30;2.83;;;6.80;12.80;;;;;;4939450;29;20043;-76
2021/03/15 12:37:43;;;;;;;3.33;2.30;;;7.10;14.90;;;;;;4943492;29;20047;-75
2021/03/15 12:40:11;;;;;;;2.50;2.13;;;7.30;11.70;;;;;;4936537;29;20087;-74
2021/03/15 12:42:39;;;;;;;2.80;2.47;;;7.50;10.50;;;;;;4942165;29;20055;-74
2021/03/15 12:45:08;;;;;;;2.78;2.58;;;7.20;10.40;;;;;;4940450;29;20055;-74
2021/03/15 12:47:35;;;;;;;3.08;2.65;;;7.20;11.70;;;;;;4936163;29;20066;-76
2021/03/15 12:50:05;;;;;;;2.47;2.28;;;7.30;12.10;;;;;;4940329;29;20181;-75
2021/03/15 12:52:32;;;;;;;2.30;1.90;;;7.20;7.50;;;;;;4938142;29;20059;-75
2021/03/15 12:55:00;;;;;;;2.50;2.30;;;7.20;8.40;;;;;;4937536;29;20052;-76
2021/03/15 12:57:27;;;;;;;2.80;2.45;;;7.60;8.80;;;;;;4945962;29;20051;-76
2021/03/15 12:59:54;;;;;;;4.50;2.40;;;7.60;9.70;;;;;;4939816;29;20065;-79
2021/03/15 13:02:21;;;;;;;3.00;2.03;;;7.10;5.20;;;;;;4938566;29;20054;-77
2021/03/15 13:04:48;;;;;;;3.13;2.50;;;7.50;7.10;;;;;;4936883;29;20051;-78
2021/03/15 13:07:15;;;;;;;2.72;2.33;;;7.70;5.70;;;;;;4937686;29;20529;-78
2021/03/15 13:09:42;;;;;;;2.40;2.20;;;7.80;7.10;;;;;;4938603;28;20043;-77
2021/03/15 13:12:11;;;;;;;4.25;2.10;;;7.80;1.10;;;;;;4934829;29;20062;-77
2021/03/15 13:14:40;;;;;;;2.20;1.80;;;7.90;1.00;;;;;;4932664;29;20051;-79
2021/03/15 13:17:07;;;;;;;2.70;1.60;;;8.20;1.00;;;;;;4936705;29;20062;-76